Time;durP1;ratioP1;P1;durP2;ratioP2;P2;SDS_P1;SDS_P2;PMS_P1;PMS_P2;Temp;Humidity;BMP_temperature;BMP_pressure;BME280_temperature;BME280_humidity;BME280_pressure;Samples;Min_cycle;Max_cycle;Signal;HPM_P1;HPM_P2
2023/02/11 00:01:08;;;;;;;;;;;-0.70;95.40;;;;;;5097309;28;19951;-79
2023/02/11 00:03:34;;;;;;;;;;;-0.70;95.50;;;;;;5101133;28;19915;-80
2023/02/11 00:06:00;;;;;;;;;;;-0.70;95.60;;;;;;5104842;28;19912;-80
2023/02/11 00:08:26;;;;;;;;;;;-0.70;95.60;;;;;;5082960;28;19920;-80
2023/02/11 00:10:52;;;;;;;;;;;-0.70;95.60;;;;;;5080241;28;19912;-80
2023/02/11 00:13:18;;;;;;;;;;;-0.70;95.60;;;;;;5092562;28;19959;-80
2023/02/11 00:15:43;;;;;;;;;;;-0.80;95.60;;;;;;5080416;28;19935;-80
2023/02/11 00:18:09;;;;;;;;;;;-0.80;95.60;;;;;;5088268;28;19935;-80
2023/02/11 00:20:37;;;;;;;;;;;-0.80;95.60;;;;;;5079842;28;19908;-80
2023/02/11 00:23:02;;;;;;;;;;;-0.80;95.60;;;;;;5086895;28;19919;-80
2023/02/11 00:25:28;;;;;;;;;;;-0.80;95.60;;;;;;5083872;28;19995;-80
2023/02/11 00:27:53;;;;;;;;;;;-0.90;95.70;;;;;;5078634;28;19959;-80
2023/02/11 00:30:19;;;;;;;;;;;-1.00;95.80;;;;;;5077324;28;19909;-80
2023/02/11 00:32:44;;;;;;;;;;;-1.00;96.00;;;;;;5096147;28;19923;-80
2023/02/11 00:35:10;;;;;;;;;;;-1.00;96.10;;;;;;5108331;28;20374;-80
2023/02/11 00:37:35;;;;;;;;;;;-1.00;96.20;;;;;;5087895;28;19920;-80
2023/02/11 00:40:02;;;;;;;;;;;-1.00;96.20;;;;;;5078921;28;20341;-79
2023/02/11 00:42:28;;;;;;;;;;;-1.00;96.20;;;;;;5097009;28;19931;-80
2023/02/11 00:44:53;;;;;;;;;;;-1.00;96.30;;;;;;5085556;28;20003;-79
2023/02/11 00:47:19;;;;;;;;;;;-1.00;96.30;;;;;;5082846;28;19999;-80
2023/02/11 00:49:44;;;;;;;;;;;-1.10;96.40;;;;;;5089060;28;19982;-80
2023/02/11 00:52:10;;;;;;;;;;;-1.10;96.50;;;;;;5094738;28;19985;-80
2023/02/11 00:54:35;;;;;;;;;;;-1.10;96.60;;;;;;5086535;28;19919;-80
2023/02/11 00:57:01;;;;;;;;;;;-1.10;96.60;;;;;;5110744;28;19928;-80
2023/02/11 00:59:26;;;;;;;;;;;-1.10;96.70;;;;;;5102184;28;19908;-80
2023/02/11 01:01:52;;;;;;;;;;;-1.10;96.80;;;;;;5116095;28;20212;-80
2023/02/11 01:04:17;;;;;;;;;;;-1.10;96.80;;;;;;5108434;28;19904;-80
2023/02/11 01:06:43;;;;;;;;;;;-1.10;96.70;;;;;;5108602;28;19928;-80
2023/02/11 01:09:08;;;;;;;;;;;-1.10;96.60;;;;;;5104831;28;19938;-80
2023/02/11 01:11:34;;;;;;;;;;;-1.10;96.60;;;;;;5097284;28;19940;-80
2023/02/11 01:14:00;;;;;;;;;;;-1.10;96.50;;;;;;5100297;28;19927;-80
2023/02/11 01:16:25;;;;;;;;;;;-1.10;96.50;;;;;;5102045;28;19912;-80
2023/02/11 01:18:50;;;;;;;;;;;-1.10;96.40;;;;;;5098574;28;19967;-80
2023/02/11 01:21:16;;;;;;;;;;;-1.20;96.50;;;;;;5082050;28;19908;-80
2023/02/11 01:23:42;;;;;;;;;;;-1.20;96.50;;;;;;5080043;28;19935;-80
2023/02/11 01:26:07;;;;;;;;;;;-1.20;96.70;;;;;;5078183;28;19962;-80
2023/02/11 01:28:33;;;;;;;;;;;-1.20;96.90;;;;;;5088514;28;19912;-80
2023/02/11 01:30:59;;;;;;;;;;;-1.30;96.90;;;;;;5089680;28;19915;-79
2023/02/11 01:33:25;;;;;;;;;;;-1.20;96.90;;;;;;5101672;28;20379;-79
2023/02/11 01:35:51;;;;;;;;;;;-1.30;96.70;;;;;;5078596;28;20012;-79
2023/02/11 01:38:20;;;;;;;;;;;-1.30;96.80;;;;;;5086823;28;19912;-79
2023/02/11 01:40:50;;;;;;;;;;;-1.30;96.90;;;;;;5084341;28;20029;-79
2023/02/11 01:43:15;;;;;;;;;;;-1.40;96.90;;;;;;5090680;28;19923;-80
2023/02/11 01:45:44;;;;;;;;;;;-1.40;97.00;;;;;;5098372;28;19909;-79
2023/02/11 01:48:11;;;;;;;;;;;-1.40;97.10;;;;;;5088508;28;19916;-79
2023/02/11 01:50:38;;;;;;;;;;;-1.40;97.10;;;;;;5091022;28;20052;-79
2023/02/11 01:58:34;;;;;;;;;;;-1.50;97.30;;;;;;5079801;28;19919;-80
2023/02/11 02:01:01;;;;;;;;;;;-1.50;97.30;;;;;;5088083;28;19915;-79
2023/02/11 02:03:29;;;;;;;;;;;-1.40;97.40;;;;;;5112644;28;19908;-79
2023/02/11 02:05:55;;;;;;;;;;;-1.50;97.30;;;;;;5095283;28;20375;-79
2023/02/11 02:08:25;;;;;;;;;;;-1.50;97.30;;;;;;5104995;28;19920;-79
2023/02/11 02:10:55;;;;;;;;;;;-1.40;97.30;;;;;;5097726;28;19916;-79
2023/02/11 02:13:24;;;;;;;;;;;-1.50;97.40;;;;;;5089158;28;20007;-79
2023/02/11 02:15:50;;;;;;;;;;;-1.50;97.30;;;;;;5085828;28;20006;-79
2023/02/11 02:18:22;;;;;;;;;;;-1.40;97.30;;;;;;5090330;28;19912;-79
2023/02/11 02:21:00;;;;;;;;;;;-1.40;97.30;;;;;;5105837;28;19979;-80
2023/02/11 02:23:25;;;;;;;;;;;-1.40;97.20;;;;;;5090512;28;20329;-79
2023/02/11 02:26:06;;;;;;;;;;;-1.40;97.20;;;;;;5077965;28;19908;-79
2023/02/11 02:28:46;;;;;;;;;;;-1.40;97.20;;;;;;5080275;28;19913;-79
2023/02/11 02:31:31;;;;;;;;;;;-1.40;97.20;;;;;;5105830;28;19912;-79
2023/02/11 02:34:08;;;;;;;;;;;-1.40;97.20;;;;;;5078726;28;19918;-79
2023/02/11 02:36:36;;;;;;;;;;;-1.50;97.20;;;;;;5092944;28;19999;-79
2023/02/11 02:39:07;;;;;;;;;;;-1.50;97.10;;;;;;5092548;28;20309;-80
2023/02/11 02:41:34;;;;;;;;;;;-1.40;97.20;;;;;;5111446;28;19917;-79
2023/02/11 02:43:59;;;;;;;;;;;-1.50;97.10;;;;;;5077406;28;19944;-79
2023/02/11 02:46:27;;;;;;;;;;;-1.40;97.20;;;;;;5089295;28;19919;-80
2023/02/11 02:48:53;;;;;;;;;;;-1.50;97.20;;;;;;5087323;28;19923;-79
2023/02/11 02:51:34;;;;;;;;;;;-1.50;97.20;;;;;;5090684;28;19954;-79
2023/02/11 02:54:18;;;;;;;;;;;-1.50;97.20;;;;;;5085439;28;19972;-79
2023/02/11 02:56:47;;;;;;;;;;;-1.50;97.20;;;;;;5096884;28;19957;-79
2023/02/11 02:59:22;;;;;;;;;;;-1.50;97.10;;;;;;5089454;28;19912;-79
2023/02/11 03:01:53;;;;;;;;;;;-1.50;97.00;;;;;;5077302;28;19912;-80
2023/02/11 03:04:37;;;;;;;;;;;-1.50;97.00;;;;;;5084447;28;19973;-80
2023/02/11 03:07:07;;;;;;;;;;;-1.60;97.00;;;;;;5092432;28;19912;-79
2023/02/11 03:09:33;;;;;;;;;;;-1.60;97.20;;;;;;5092886;28;19912;-79
2023/02/11 03:11:59;;;;;;;;;;;-1.60;97.20;;;;;;5092647;28;19923;-79
2023/02/11 03:14:25;;;;;;;;;;;-1.60;97.20;;;;;;5080601;28;19938;-79
2023/02/11 03:16:52;;;;;;;;;;;-1.60;97.20;;;;;;5091528;28;19962;-79
2023/02/11 03:19:19;;;;;;;;;;;-1.60;97.30;;;;;;5095789;28;19908;-79
2023/02/11 03:21:45;;;;;;;;;;;-1.60;97.40;;;;;;5082992;28;19913;-79
2023/02/11 03:24:14;;;;;;;;;;;-1.60;97.40;;;;;;5077935;28;19912;-79
2023/02/11 03:26:43;;;;;;;;;;;-1.70;97.40;;;;;;5076274;28;19916;-79
2023/02/11 03:29:08;;;;;;;;;;;-1.70;97.40;;;;;;5079759;28;19916;-79
2023/02/11 03:31:43;;;;;;;;;;;-1.60;97.40;;;;;;5092646;28;20343;-78
2023/02/11 03:34:11;;;;;;;;;;;-1.60;97.40;;;;;;5087777;28;20014;-80
2023/02/11 03:36:58;;;;;;;;;;;-1.60;97.40;;;;;;5088296;28;20331;-80
2023/02/11 03:39:33;;;;;;;;;;;-1.50;97.20;;;;;;5094434;28;19938;-79
2023/02/11 03:42:01;;;;;;;;;;;-1.40;96.80;;;;;;5096878;28;19920;-79
2023/02/11 03:44:28;;;;;;;;;;;-1.40;96.60;;;;;;5107975;28;19939;-79
2023/02/11 03:46:54;;;;;;;;;;;-1.40;96.30;;;;;;5085766;28;19908;-79
2023/02/11 03:49:21;;;;;;;;;;;-1.30;96.00;;;;;;5088196;28;19915;-79
2023/02/11 03:51:48;;;;;;;;;;;-1.30;95.70;;;;;;5111800;28;19922;-79
2023/02/11 03:54:15;;;;;;;;;;;-1.40;95.50;;;;;;5094582;28;19924;-79
2023/02/11 03:56:47;;;;;;;;;;;-1.40;95.40;;;;;;5095890;28;20367;-79
2023/02/11 03:59:13;;;;;;;;;;;-1.40;95.30;;;;;;5095868;28;20045;-79
2023/02/11 04:01:39;;;;;;;;;;;-1.40;95.20;;;;;;5079856;28;19953;-79
2023/02/11 04:04:04;;;;;;;;;;;-1.40;95.30;;;;;;5087180;28;19950;-80
2023/02/11 04:06:30;;;;;;;;;;;-1.40;95.30;;;;;;5081118;28;19967;-80
2023/02/11 04:08:55;;;;;;;;;;;-1.40;95.20;;;;;;5094691;28;20042;-80
2023/02/11 04:11:21;;;;;;;;;;;-1.40;95.10;;;;;;5086714;28;19908;-79
2023/02/11 04:13:46;;;;;;;;;;;-1.40;95.20;;;;;;5094256;28;19912;-79
2023/02/11 04:16:12;;;;;;;;;;;-1.40;95.10;;;;;;5082476;28;19912;-80
2023/02/11 04:18:37;;;;;;;;;;;-1.40;95.00;;;;;;5104546;28;19904;-79
2023/02/11 04:21:03;;;;;;;;;;;-1.50;95.00;;;;;;5086436;28;19909;-79
2023/02/11 04:23:28;;;;;;;;;;;-1.50;94.90;;;;;;5090094;28;19923;-79
2023/02/11 04:25:54;;;;;;;;;;;-1.50;95.00;;;;;;5113076;28;19911;-79
2023/02/11 04:28:19;;;;;;;;;;;-1.50;95.10;;;;;;5109552;28;20203;-79
2023/02/11 04:30:45;;;;;;;;;;;-1.50;95.10;;;;;;5097336;28;19996;-79
2023/02/11 04:33:10;;;;;;;;;;;-1.50;95.00;;;;;;5105782;28;19982;-79
2023/02/11 04:35:36;;;;;;;;;;;-1.50;95.00;;;;;;5074740;28;19922;-79
2023/02/11 04:38:01;;;;;;;;;;;-1.40;94.90;;;;;;5076432;28;19912;-79
2023/02/11 04:40:27;;;;;;;;;;;-1.50;95.00;;;;;;5092531;28;19912;-80
2023/02/11 04:42:52;;;;;;;;;;;-1.40;95.00;;;;;;5104393;28;20386;-80
2023/02/11 04:45:18;;;;;;;;;;;-1.30;95.00;;;;;;5075978;28;20002;-80
2023/02/11 04:47:43;;;;;;;;;;;-1.30;94.90;;;;;;5084601;28;19917;-79
2023/02/11 04:50:09;;;;;;;;;;;-1.30;94.90;;;;;;5090190;28;19912;-80
2023/02/11 04:52:35;;;;;;;;;;;-1.30;94.80;;;;;;5097144;28;19916;-80
2023/02/11 04:55:00;;;;;;;;;;;-1.30;94.80;;;;;;5102008;28;19920;-79
2023/02/11 04:57:26;;;;;;;;;;;-1.30;95.00;;;;;;5119915;28;19908;-80
2023/02/11 04:59:51;;;;;;;;;;;-1.40;94.70;;;;;;5105592;28;19982;-80
2023/02/11 05:02:17;;;;;;;;;;;-1.40;94.80;;;;;;5100249;28;19916;-80
2023/02/11 05:04:42;;;;;;;;;;;-1.40;94.90;;;;;;5085679;28;19908;-80
2023/02/11 05:07:08;;;;;;;;;;;-1.40;95.10;;;;;;5088633;28;19917;-80
2023/02/11 05:09:33;;;;;;;;;;;-1.40;95.20;;;;;;5097858;28;20468;-79
2023/02/11 05:11:59;;;;;;;;;;;-1.40;95.20;;;;;;5090139;28;19943;-79
2023/02/11 05:14:24;;;;;;;;;;;-1.30;95.20;;;;;;5107442;28;19923;-79
2023/02/11 05:16:50;;;;;;;;;;;-1.30;95.20;;;;;;5101437;28;19927;-80
2023/02/11 05:19:15;;;;;;;;;;;-1.20;95.30;;;;;;5097023;28;20313;-80
2023/02/11 05:21:41;;;;;;;;;;;-1.00;95.30;;;;;;5122188;28;19992;-79
2023/02/11 05:24:06;;;;;;;;;;;-0.90;95.20;;;;;;5112158;28;19903;-79
2023/02/11 05:26:32;;;;;;;;;;;-0.80;94.90;;;;;;5113719;28;19952;-79
2023/02/11 05:28:57;;;;;;;;;;;-0.70;94.70;;;;;;5116730;28;19908;-80
2023/02/11 05:31:23;;;;;;;;;;;-0.60;94.30;;;;;;5111790;28;19912;-79
2023/02/11 05:33:48;;;;;;;;;;;-0.50;94.10;;;;;;5118574;28;19924;-79
2023/02/11 05:36:15;;;;;;;;;;;-0.40;94.00;;;;;;5104579;28;20045;-79
2023/02/11 05:38:42;;;;;;;;;;;-0.40;93.80;;;;;;5085951;28;19912;-80
2023/02/11 05:41:07;;;;;;;;;;;-0.30;93.70;;;;;;5082563;28;19912;-80
2023/02/11 05:43:36;;;;;;;;;;;-0.30;93.50;;;;;;5081364;28;19963;-80
2023/02/11 05:46:02;;;;;;;;;;;-0.20;93.30;;;;;;5098910;28;19957;-81
2023/02/11 05:48:28;;;;;;;;;;;-0.20;93.20;;;;;;5090516;28;19920;-81
2023/02/11 05:50:53;;;;;;;;;;;-0.30;93.20;;;;;;5083154;28;19965;-83
2023/02/11 05:53:19;;;;;;;;;;;-0.30;93.30;;;;;;5079440;28;19916;-82
2023/02/11 05:55:44;;;;;;;;;;;-0.30;93.30;;;;;;5079934;28;20007;-82
2023/02/11 05:58:10;;;;;;;;;;;-0.30;93.30;;;;;;5095593;28;19962;-81
2023/02/11 06:00:36;;;;;;;;;;;-0.40;93.30;;;;;;5077666;28;19908;-81
2023/02/11 06:03:03;;;;;;;;;;;-0.40;93.30;;;;;;5079532;28;19952;-81
2023/02/11 06:05:28;;;;;;;;;;;-0.30;93.30;;;;;;5078326;28;19908;-81
2023/02/11 06:07:54;;;;;;;;;;;-0.40;93.30;;;;;;5076791;28;19966;-81
2023/02/11 06:10:20;;;;;;;;;;;-0.30;93.40;;;;;;5091173;28;19916;-81
2023/02/11 06:12:45;;;;;;;;;;;-0.30;93.30;;;;;;5115537;28;20003;-81
2023/02/11 06:15:11;;;;;;;;;;;-0.40;93.10;;;;;;5100498;28;20353;-81
2023/02/11 06:17:36;;;;;;;;;;;-0.40;93.20;;;;;;5097531;28;19975;-81
2023/02/11 06:20:04;;;;;;;;;;;-0.40;93.30;;;;;;5092819;28;19916;-81
2023/02/11 06:22:29;;;;;;;;;;;-0.40;93.50;;;;;;5098475;28;19914;-81
2023/02/11 06:24:55;;;;;;;;;;;-0.40;93.50;;;;;;5124721;28;19904;-82
2023/02/11 06:27:20;;;;;;;;;;;-0.40;93.60;;;;;;5119098;28;19908;-82
2023/02/11 06:29:46;;;;;;;;;;;-0.40;93.60;;;;;;5134909;27;19978;-83
2023/02/11 06:32:12;;;;;;;;;;;-0.40;93.60;;;;;;5089107;28;19942;-82
2023/02/11 06:34:38;;;;;;;;;;;-0.30;93.50;;;;;;5089147;28;19909;-81
2023/02/11 06:37:03;;;;;;;;;;;-0.30;93.30;;;;;;5103061;28;19916;-82
2023/02/11 06:39:29;;;;;;;;;;;-0.30;93.20;;;;;;5086137;28;19916;-84
2023/02/11 06:41:54;;;;;;;;;;;-0.30;93.10;;;;;;5086051;28;19923;-84
2023/02/11 06:44:20;;;;;;;;;;;-0.20;92.90;;;;;;5101181;28;19916;-83
2023/02/11 06:46:45;;;;;;;;;;;-0.10;92.80;;;;;;5105777;28;19981;-84
2023/02/11 06:49:15;;;;;;;;;;;-0.10;92.60;;;;;;5101220;28;19962;-83
2023/02/11 06:51:41;;;;;;;;;;;0.00;92.40;;;;;;5098122;28;19959;-82
2023/02/11 06:54:07;;;;;;;;;;;0.00;92.30;;;;;;5103604;28;19908;-83
2023/02/11 06:56:33;;;;;;;;;;;0.00;92.10;;;;;;5104322;28;19954;-83
2023/02/11 06:58:59;;;;;;;;;;;0.10;92.10;;;;;;5120480;28;19908;-83
2023/02/11 07:01:25;;;;;;;;;;;0.10;92.10;;;;;;5112034;28;19923;-82
2023/02/11 07:03:51;;;;;;;;;;;0.20;91.90;;;;;;5084250;28;19908;-83
2023/02/11 07:06:20;;;;;;;;;;;0.30;91.80;;;;;;5083546;28;19969;-83
2023/02/11 07:08:47;;;;;;;;;;;0.30;91.60;;;;;;5099344;28;20003;-83
2023/02/11 07:11:17;;;;;;;;;;;0.40;91.50;;;;;;5084925;28;20019;-83
2023/02/11 07:13:42;;;;;;;;;;;0.50;91.40;;;;;;5103910;28;20259;-84
2023/02/11 07:16:09;;;;;;;;;;;0.50;91.20;;;;;;5104022;28;19934;-82
2023/02/11 07:18:34;;;;;;;;;;;0.60;91.00;;;;;;5095819;28;19916;-83
2023/02/11 07:21:03;;;;;;;;;;;0.60;90.70;;;;;;5101954;28;20133;-83
2023/02/11 07:23:29;;;;;;;;;;;0.60;90.50;;;;;;5103427;28;19916;-82
2023/02/11 07:25:54;;;;;;;;;;;0.70;90.40;;;;;;5103175;28;19908;-83
2023/02/11 07:28:20;;;;;;;;;;;0.70;90.20;;;;;;5099485;28;20029;-82
2023/02/11 07:30:45;;;;;;;;;;;0.80;90.00;;;;;;5098918;28;19908;-82
2023/02/11 07:33:11;;;;;;;;;;;0.80;89.70;;;;;;5112113;28;19984;-82
2023/02/11 07:35:36;;;;;;;;;;;0.80;88.20;;;;;;5114160;28;20364;-82
2023/02/11 07:38:02;;;;;;;;;;;0.80;88.20;;;;;;5102671;28;19955;-83
2023/02/11 07:40:27;;;;;;;;;;;0.90;88.20;;;;;;5112006;28;19896;-82
2023/02/11 07:42:53;;;;;;;;;;;0.90;88.10;;;;;;5106759;28;20035;-83
2023/02/11 07:45:18;;;;;;;;;;;0.90;87.90;;;;;;5083652;28;19909;-83
2023/02/11 07:47:44;;;;;;;;;;;1.00;87.50;;;;;;5102569;28;19908;-82
2023/02/11 07:50:10;;;;;;;;;;;1.00;86.40;;;;;;5113136;28;19916;-82
2023/02/11 07:52:35;;;;;;;;;;;1.10;86.40;;;;;;5101353;28;19983;-82
2023/02/11 07:55:01;;;;;;;;;;;1.10;86.10;;;;;;5099993;28;19908;-82
2023/02/11 07:57:27;;;;;;;;;;;1.10;85.90;;;;;;5104308;28;19908;-83
2023/02/11 07:59:52;;;;;;;;;;;1.20;86.00;;;;;;5102620;28;19916;-83
2023/02/11 08:02:18;;;;;;;;;;;1.20;85.60;;;;;;5103601;28;19934;-85
2023/02/11 08:04:46;;;;;;;;;;;1.30;85.30;;;;;;5084814;28;19912;-82
2023/02/11 08:07:16;;;;;;;;;;;1.40;84.90;;;;;;5082928;28;19908;-84
2023/02/11 08:09:41;;;;;;;;;;;1.50;84.70;;;;;;5098652;28;19930;-83
2023/02/11 08:12:07;;;;;;;;;;;1.70;84.50;;;;;;5082894;28;20398;-83
2023/02/11 08:14:32;;;;;;;;;;;1.80;84.20;;;;;;5082130;28;19931;-84
2023/02/11 08:16:58;;;;;;;;;;;1.90;84.00;;;;;;5100763;28;19913;-83
2023/02/11 08:19:23;;;;;;;;;;;2.10;83.60;;;;;;5087564;28;19908;-83
2023/02/11 08:21:49;;;;;;;;;;;2.30;83.10;;;;;;5083040;28;19935;-82
2023/02/11 08:24:15;;;;;;;;;;;2.50;82.20;;;;;;5082384;28;19949;-83
2023/02/11 08:26:40;;;;;;;;;;;2.70;81.40;;;;;;5082674;28;19986;-82
2023/02/11 08:29:10;;;;;;;;;;;2.90;80.20;;;;;;5081897;28;19912;-83
2023/02/11 08:31:37;;;;;;;;;;;3.00;79.30;;;;;;5081970;28;20389;-83
2023/02/11 08:34:03;;;;;;;;;;;3.10;78.50;;;;;;5101970;28;19912;-83
2023/02/11 08:36:30;;;;;;;;;;;3.10;77.80;;;;;;5103150;28;19908;-83
2023/02/11 08:38:56;;;;;;;;;;;3.10;77.30;;;;;;5102233;28;20382;-83
2023/02/11 08:41:22;;;;;;;;;;;3.10;77.30;;;;;;5102356;28;20015;-82
2023/02/11 08:43:49;;;;;;;;;;;3.20;77.20;;;;;;5101318;28;20447;-83
2023/02/11 08:46:17;;;;;;;;;;;3.40;77.00;;;;;;5101665;28;19912;-83
2023/02/11 08:48:43;;;;;;;;;;;3.40;76.50;;;;;;5092280;28;19950;-83
2023/02/11 08:51:18;;;;;;;;;;;3.50;76.40;;;;;;5099523;28;20146;-84
2023/02/11 08:53:44;;;;;;;;;;;3.60;75.90;;;;;;5100858;28;19911;-83
2023/02/11 08:56:10;;;;;;;;;;;3.60;75.70;;;;;;5102077;28;19998;-82
2023/02/11 08:58:36;;;;;;;;;;;3.70;75.80;;;;;;5104399;28;19923;-83
2023/02/11 09:01:07;;;;;;;;;;;3.70;75.80;;;;;;5102128;28;19908;-83
2023/02/11 09:03:32;;;;;;;;;;;3.80;75.30;;;;;;5103296;28;19915;-83
2023/02/11 09:05:58;;;;;;;;;;;3.90;74.70;;;;;;5090365;28;19909;-83
2023/02/11 09:08:23;;;;;;;;;;;4.10;74.30;;;;;;5083260;28;20358;-83
2023/02/11 09:10:49;;;;;;;;;;;4.20;73.60;;;;;;5083270;28;19915;-82
2023/02/11 09:13:15;;;;;;;;;;;4.40;73.60;;;;;;5083564;28;20126;-83
2023/02/11 09:15:44;;;;;;;;;;;4.50;73.20;;;;;;5099828;28;19968;-82
2023/02/11 09:18:09;;;;;;;;;;;4.60;72.60;;;;;;5113561;28;19923;-82
2023/02/11 09:20:35;;;;;;;;;;;4.50;71.50;;;;;;5130197;28;19896;-83
2023/02/11 09:23:00;;;;;;;;;;;4.40;70.30;;;;;;5113460;28;20304;-82
2023/02/11 09:25:26;;;;;;;;;;;4.30;71.00;;;;;;5110641;28;19960;-82
2023/02/11 09:27:52;;;;;;;;;;;4.30;71.80;;;;;;5113966;28;19996;-82
2023/02/11 09:30:18;;;;;;;;;;;4.30;71.80;;;;;;5128859;28;19908;-83
2023/02/11 09:32:43;;;;;;;;;;;4.30;71.00;;;;;;5106164;28;19912;-82
2023/02/11 09:35:09;;;;;;;;;;;4.30;71.10;;;;;;5111885;28;19976;-82
2023/02/11 09:37:34;;;;;;;;;;;4.40;70.90;;;;;;5098867;28;19972;-83
2023/02/11 09:40:00;;;;;;;;;;;4.50;70.20;;;;;;5097852;28;19929;-83
2023/02/11 09:42:41;;;;;;;;;;;4.60;69.90;;;;;;5090519;28;19938;-83
2023/02/11 09:45:18;;;;;;;;;;;4.70;69.90;;;;;;5097194;28;19955;-83
2023/02/11 09:47:49;;;;;;;;;;;4.70;69.30;;;;;;5097610;28;19915;-83
2023/02/11 09:50:18;;;;;;;;;;;4.70;68.70;;;;;;5090211;28;19913;-84
2023/02/11 09:52:59;;;;;;;;;;;4.60;68.20;;;;;;5085785;28;19943;-84
2023/02/11 09:55:29;;;;;;;;;;;4.40;68.20;;;;;;5093956;28;19908;-82
2023/02/11 09:57:55;;;;;;;;;;;4.40;68.60;;;;;;5089296;28;20263;-83
2023/02/11 10:00:23;;;;;;;;;;;4.40;69.10;;;;;;5099966;28;19912;-83
2023/02/11 10:03:07;;;;;;;;;;;4.40;68.80;;;;;;5086086;28;19955;-83
2023/02/11 10:05:41;;;;;;;;;;;4.70;69.00;;;;;;5084596;28;20012;-84
2023/02/11 10:08:11;;;;;;;;;;;5.20;68.50;;;;;;5099010;28;19919;-82
2023/02/11 10:10:45;;;;;;;;;;;5.70;67.20;;;;;;5112584;28;19914;-84
2023/02/11 10:13:25;;;;;;;;;;;6.00;65.30;;;;;;5111145;28;19937;-84
2023/02/11 10:16:01;;;;;;;;;;;6.20;65.50;;;;;;5109831;28;19919;-83
2023/02/11 10:18:30;;;;;;;;;;;6.30;63.50;;;;;;5100993;28;19916;-83
2023/02/11 10:21:14;;;;;;;;;;;6.20;63.10;;;;;;5101972;28;19919;-83
2023/02/11 10:23:45;;;;;;;;;;;6.20;63.20;;;;;;5099608;28;19908;-83
2023/02/11 10:26:13;;;;;;;;;;;6.30;63.70;;;;;;5098357;28;19951;-83
2023/02/11 10:28:41;;;;;;;;;;;6.30;63.50;;;;;;5094812;28;19923;-83
2023/02/11 10:31:06;;;;;;;;;;;6.30;63.30;;;;;;5101749;28;19916;-84
2023/02/11 10:33:53;;;;;;;;;;;6.30;63.50;;;;;;5117997;28;19912;-84
2023/02/11 10:36:22;;;;;;;;;;;6.30;63.20;;;;;;5105071;28;19940;-84
2023/02/11 10:38:48;;;;;;;;;;;6.20;63.40;;;;;;5104458;28;20034;-83
2023/02/11 10:41:20;;;;;;;;;;;6.10;63.80;;;;;;5107558;28;19908;-84
2023/02/11 10:43:45;;;;;;;;;;;6.40;64.10;;;;;;5112136;28;19943;-84
2023/02/11 10:46:20;;;;;;;;;;;6.60;63.50;;;;;;5113728;28;19897;-82
2023/02/11 10:48:49;;;;;;;;;;;6.80;61.30;;;;;;5113022;28;19924;-82
2023/02/11 10:51:22;;;;;;;;;;;6.90;61.30;;;;;;5124407;28;19914;-84
2023/02/11 10:54:28;;;;;;;;;;;6.80;61.70;;;;;;5114231;28;19916;-83
2023/02/11 10:56:58;;;;;;;;;;;6.80;62.20;;;;;;5110464;28;19908;-83
2023/02/11 10:59:29;;;;;;;;;;;7.10;62.40;;;;;;5108990;28;20374;-83
2023/02/11 11:02:06;;;;;;;;;;;7.40;61.80;;;;;;5088804;28;19975;-82
2023/02/11 11:04:32;;;;;;;;;;;7.70;61.60;;;;;;5082288;28;19909;-83
2023/02/11 11:07:09;;;;;;;;;;;8.10;61.10;;;;;;5083654;28;20000;-84
2023/02/11 11:10:02;;;;;;;;;;;8.40;60.30;;;;;;5091804;28;19983;-84
2023/02/11 11:12:30;;;;;;;;;;;8.30;58.80;;;;;;5081322;28;19913;-83
2023/02/11 11:14:58;;;;;;;;;;;8.20;58.30;;;;;;5121275;28;19985;-83
2023/02/11 11:17:27;;;;;;;;;;;8.00;59.20;;;;;;5104949;28;19989;-83
2023/02/11 11:20:34;;;;;;;;;;;8.00;58.40;;;;;;5110365;28;19915;-84
2023/02/11 11:23:26;;;;;;;;;;;8.10;59.00;;;;;;5058857;28;19919;-84
2023/02/11 11:26:21;;;;;;;;;;;8.10;57.40;;;;;;5058506;28;19963;-84
2023/02/11 11:28:57;;;;;;;;;;;8.10;57.70;;;;;;5102626;28;19909;-84
2023/02/11 11:31:29;;;;;;;;;;;7.90;57.60;;;;;;5120327;28;20015;-84
2023/02/11 11:33:56;;;;;;;;;;;7.80;57.30;;;;;;5103976;28;19915;-84
2023/02/11 11:36:40;;;;;;;;;;;7.70;57.50;;;;;;5104508;28;19909;-84
2023/02/11 11:39:20;;;;;;;;;;;7.60;57.60;;;;;;5104149;28;19908;-84
2023/02/11 11:41:50;;;;;;;;;;;7.70;57.80;;;;;;5106535;28;19915;-84
2023/02/11 11:44:24;;;;;;;;;;;7.90;58.10;;;;;;5112030;28;19919;-83
2023/02/11 11:46:52;;;;;;;;;;;8.00;55.80;;;;;;5105750;28;19916;-82
2023/02/11 11:49:33;;;;;;;;;;;8.10;55.80;;;;;;5104133;28;19914;-83
2023/02/11 11:52:25;;;;;;;;;;;8.40;54.60;;;;;;5096102;28;19913;-82
2023/02/11 11:54:58;;;;;;;;;;;8.60;54.50;;;;;;5093230;28;19924;-83
2023/02/11 11:57:27;;;;;;;;;;;8.80;54.90;;;;;;5090361;28;19908;-83
2023/02/11 12:00:21;;;;;;;;;;;9.00;53.00;;;;;;5104218;28;19920;-83
2023/02/11 12:03:04;;;;;;;;;;;9.10;51.30;;;;;;5081838;28;19908;-83
2023/02/11 12:05:33;;;;;;;;;;;9.10;51.30;;;;;;5082645;28;19909;-82
2023/02/11 12:07:58;;;;;;;;;;;8.90;50.60;;;;;;5083663;28;19909;-83
2023/02/11 12:10:30;;;;;;;;;;;8.80;50.50;;;;;;5082752;28;20287;-83
2023/02/11 12:13:07;;;;;;;;;;;8.60;50.60;;;;;;5081638;28;19923;-83
2023/02/11 12:15:37;;;;;;;;;;;8.50;50.70;;;;;;5098078;28;19908;-83
2023/02/11 12:18:25;;;;;;;;;;;8.40;50.20;;;;;;5102499;28;19954;-83
2023/02/11 12:21:03;;;;;;;;;;;8.30;50.50;;;;;;5083401;28;19912;-82
2023/02/11 12:23:40;;;;;;;;;;;8.40;49.50;;;;;;5104063;28;19938;-83
2023/02/11 12:26:12;;;;;;;;;;;8.30;50.10;;;;;;5105381;28;19919;-84
2023/02/11 12:28:51;;;;;;;;;;;8.20;50.60;;;;;;5102683;28;19955;-83
2023/02/11 12:31:31;;;;;;;;;;;8.10;50.60;;;;;;5104108;28;19967;-83
2023/02/11 12:34:06;;;;;;;;;;;8.10;50.90;;;;;;5103941;28;19923;-83
2023/02/11 12:36:45;;;;;;;;;;;8.10;51.30;;;;;;5118837;28;19908;-82
2023/02/11 12:39:29;;;;;;;;;;;8.30;51.60;;;;;;5100953;28;20081;-82
2023/02/11 12:44:51;;;;;;;;;;;8.60;50.20;;;;;;5103194;28;19939;-83
2023/02/11 12:47:36;;;;;;;;;;;8.50;50.70;;;;;;5102882;28;19908;-83
2023/02/11 12:50:21;;;;;;;;;;;8.30;51.10;;;;;;5077912;28;20146;-82
2023/02/11 12:52:46;;;;;;;;;;;8.20;51.30;;;;;;5104000;28;19912;-83
2023/02/11 12:55:18;;;;;;;;;;;8.10;51.30;;;;;;5103653;28;19985;-83
2023/02/11 12:57:45;;;;;;;;;;;8.00;51.60;;;;;;5102717;28;19908;-83
2023/02/11 13:00:17;;;;;;;;;;;8.00;51.90;;;;;;5097507;28;19927;-83
2023/02/11 13:02:53;;;;;;;;;;;7.90;52.00;;;;;;5082495;28;20399;-83
2023/02/11 13:05:18;;;;;;;;;;;7.80;52.70;;;;;;5098057;28;19915;-83
2023/02/11 13:07:45;;;;;;;;;;;7.80;52.50;;;;;;5082969;28;19908;-83
2023/02/11 13:10:26;;;;;;;;;;;7.70;53.00;;;;;;5084513;28;19919;-82
2023/02/11 13:15:37;;;;;;;;;;;7.50;53.40;;;;;;5085026;28;19973;-82
2023/02/11 13:18:08;;;;;;;;;;;7.30;53.60;;;;;;5115645;28;19913;-82
2023/02/11 13:20:54;;;;;;;;;;;7.10;54.30;;;;;;5102689;28;20052;-82
2023/02/11 13:23:46;;;;;;;;;;;7.10;55.00;;;;;;5084779;28;20016;-82
2023/02/11 13:26:17;;;;;;;;;;;7.10;55.20;;;;;;5105955;28;19945;-82
2023/02/11 13:28:49;;;;;;;;;;;7.40;55.30;;;;;;5107299;28;19931;-83
2023/02/11 13:31:18;;;;;;;;;;;8.00;54.30;;;;;;5119129;28;19916;-83
2023/02/11 13:33:44;;;;;;;;;;;8.40;53.80;;;;;;5088064;28;19916;-83
2023/02/11 13:36:12;;;;;;;;;;;9.00;53.10;;;;;;5086455;28;19912;-83
2023/02/11 13:38:38;;;;;;;;;;;9.50;50.30;;;;;;5103013;28;20391;-83
2023/02/11 13:41:03;;;;;;;;;;;9.80;49.00;;;;;;5087901;28;19936;-83
2023/02/11 13:43:30;;;;;;;;;;;9.80;48.80;;;;;;5107690;28;19960;-84
2023/02/11 13:45:57;;;;;;;;;;;9.60;48.90;;;;;;5107708;28;20008;-84
2023/02/11 13:48:30;;;;;;;;;;;9.50;49.30;;;;;;5131133;28;19939;-83
2023/02/11 13:50:58;;;;;;;;;;;9.30;49.60;;;;;;5120025;28;19915;-83
2023/02/11 13:53:24;;;;;;;;;;;9.20;50.20;;;;;;5098950;28;19986;-82
2023/02/11 13:55:51;;;;;;;;;;;9.20;49.80;;;;;;5118986;28;19908;-82
2023/02/11 13:58:26;;;;;;;;;;;9.00;49.80;;;;;;5118628;28;19901;-82
2023/02/11 14:00:51;;;;;;;;;;;8.90;50.10;;;;;;5111075;28;20061;-83
2023/02/11 14:09:00;;;;;;;;;;;8.60;50.50;;;;;;5084873;28;19916;-85
2023/02/11 14:11:32;;;;;;;;;;;8.60;50.70;;;;;;5085132;28;19908;-82
2023/02/11 14:14:15;;;;;;;;;;;8.60;50.80;;;;;;5083841;28;19944;-82
2023/02/11 14:16:59;;;;;;;;;;;8.60;50.80;;;;;;5091352;28;19912;-84
2023/02/11 14:19:35;;;;;;;;;;;8.70;51.20;;;;;;5098847;28;19909;-84
2023/02/11 14:22:02;;;;;;;;;;;8.70;51.30;;;;;;5084142;28;19912;-84
2023/02/11 14:24:27;;;;;;;;;;;8.70;51.60;;;;;;5089749;28;19951;-86
2023/02/11 14:26:57;;;;;;;;;;;8.70;51.70;;;;;;5084094;28;19920;-86
2023/02/11 14:29:22;;;;;;;;;;;8.70;51.10;;;;;;5099110;28;19909;-84
2023/02/11 14:31:59;;;;;;;;;;;8.70;50.50;;;;;;5083121;28;19999;-84
2023/02/11 14:34:24;;;;;;;;;;;8.60;50.50;;;;;;5086053;28;19916;-84
2023/02/11 14:36:53;;;;;;;;;;;8.60;50.70;;;;;;5102624;28;20014;-85
2023/02/11 14:39:28;;;;;;;;;;;8.50;51.10;;;;;;5083901;28;19908;-85
2023/02/11 14:41:53;;;;;;;;;;;8.50;51.40;;;;;;5087149;28;20410;-86
2023/02/11 14:44:24;;;;;;;;;;;8.40;52.00;;;;;;5087203;28;19912;-84
2023/02/11 14:46:52;;;;;;;;;;;8.30;52.30;;;;;;5099465;28;20422;-84
2023/02/11 14:49:26;;;;;;;;;;;8.20;52.70;;;;;;5089840;28;19935;-84
2023/02/11 14:51:53;;;;;;;;;;;8.20;53.20;;;;;;5121419;28;19908;-83